CDT,Max TemperatureF,Mean TemperatureF,Min TemperatureF,Max Dew PointF,MeanDew PointF,Min DewpointF,Max Humidity, Mean Humidity, Min Humidity, Max Sea Level PressureIn, Mean Sea Level PressureIn, Min Sea Level PressureIn, Max VisibilityMiles, Mean VisibilityMiles, Min VisibilityMiles, Max Wind SpeedMPH, Mean Wind SpeedMPH, Max Gust SpeedMPH,PrecipitationIn, CloudCover, Events, WindDirDegrees
2012-10-1,71,58,46,46,40,32,82,53,30,29.98,29.91,29.83,10,10,10,15,6,22,0.00,1,,319
2012-10-2,71,50,28,43,35,27,100,58,27,29.98,29.91,29.83,10,10,7,13,2,23,0.00,0,,164
2012-10-3,75,56,37,45,37,27,93,54,17,29.91,29.87,29.82,10,10,7,14,2,17,0.00,0,,129
2012-10-4,62,50,39,45,34,28,76,61,45,30.12,29.93,29.71,10,10,7,26,14,39,0.00,5,,237
2012-10-5,41,37,33,28,26,25,75,61,53,30.15,30.11,30.09,10,10,7,22,15,33,0.00,8,,271
2012-10-6,44,35,26,28,24,19,93,63,37,30.28,30.22,30.14,10,10,3,13,8,23,0.00,7,Snow,307
2012-10-7,53,36,19,25,18,14,93,55,22,30.21,30.04,29.85,10,10,10,16,3,23,0.00,0,,187
2012-10-8,60,46,33,39,29,19,76,54,36,29.84,29.70,29.57,10,10,10,18,7,31,0.00,3,Rain,181
2012-10-9,48,40,33,36,30,25,87,63,43,29.97,29.80,29.70,10,10,10,20,8,30,0.00,6,,257
2012-10-10,51,37,23,28,24,21,93,59,32,30.08,29.99,29.83,10,10,10,16,6,20,0.00,1,,248
2012-10-11,48,34,21,34,23,16,81,55,29,30.38,30.11,29.82,10,10,10,20,8,25,0.00,0,Rain,328
2012-10-12,51,34,17,23,15,10,93,53,19,30.42,30.30,30.01,10,10,10,16,4,24,0.00,0,,144
2012-10-13,51,45,39,46,41,16,93,76,27,30.00,29.78,29.69,10,8,0,14,7,21,0.00,0,Fog,129
2012-10-14,57,46,35,43,37,30,100,72,36,29.89,29.81,29.75,10,7,0,20,6,25,0.00,0,Fog,335
2012-10-15,60,43,26,37,33,23,100,60,36,29.95,29.86,29.70,10,10,10,13,4,17,0.00,0,,174
2012-10-16,71,58,46,46,43,37,93,56,35,29.70,29.51,29.36,10,10,10,13,7,21,0.00,0,,143
2012-10-17,64,55,46,48,45,39,93,76,52,29.36,29.22,29.09,10,10,5,22,7,31,0.00,1,Rain,173
2012-10-18,48,45,42,43,42,39,100,89,76,29.40,29.25,29.16,10,8,2,7,2,,0.01,,Rain,263
2012-10-19,53,48,42,46,42,36,100,82,58,29.73,29.59,29.41,10,9,3,12,2,16,0.05,,Rain,11
2012-10-20,53,40,28,43,37,27,100,84,62,29.80,29.77,29.73,10,9,2,10,3,,0.00,0,,169
2012-10-21,64,52,39,45,42,37,93,69,45,29.91,29.83,29.77,10,9,5,13,5,18,0.00,0,,83
2012-10-22,55,50,44,45,43,39,87,75,67,30.00,29.95,29.90,10,10,10,15,8,24,0.00,0,,30
2012-10-23,60,55,50,57,52,43,100,91,76,29.89,29.76,29.68,10,5,0,9,7,16,0.00,,Fog-Rain-Thunderstorm,108
2012-10-24,60,53,44,55,49,39,100,89,72,29.88,29.82,29.78,10,7,0,17,5,25,0.06,7,Fog-Rain,323
2012-10-25,44,38,32,39,32,25,93,82,65,30.11,29.87,29.71,10,7,1,18,13,26,0.33,8,Rain-Snow-Thunderstorm,300
2012-10-26,37,34,30,27,23,19,86,63,48,30.33,30.27,30.12,10,10,10,16,9,24,0.00,7,,248
2012-10-27,42,32,21,27,21,18,93,66,36,30.35,30.31,30.27,10,10,7,9,2,,0.00,3,,217
2012-10-28,42,34,26,27,24,21,86,68,49,30.32,30.30,30.27,10,10,10,12,3,,0.00,7,,145
2012-10-29,46,37,28,25,24,21,80,63,43,30.31,30.28,30.25,10,10,7,10,4,,0.00,5,,108
2012-10-30,46,34,21,30,22,12,86,65,27,30.25,30.17,30.07,10,10,10,12,3,16,0.00,0,,28
2012-10-31,51,32,14,28,19,10,93,63,22,30.08,30.00,29.92,10,10,10,9,1,,0.00,2,,302